Terminal Aerodrome Forecast
Issued by NWS St Louis, MO

Home | Current Version | Previous Version | Text Only | Print | Product List | Glossary On
Versions: 1 2 3 4 5 6 7 8 9 10 11 12 13 14 15 16 17 18 19 20 21 22 23 24 25 26 27 28 29 30 31 32 33 34 35 36 37 38 39 40 41 42 43 44 45 46 47 48
000
FTUS43 KLSX 131510 AAA
TAFSTL
TAF AMD
KSTL 131510Z 1315/1418 16005KT P6SM BKN120
     FM132200 15005KT P6SM SCT050 OVC120
     FM140600 VRB04KT P6SM OVC040
     FM141000 VRB04KT 5SM -RA OVC030
     FM141600 31009KT P6SM OVC025=

USA.gov is the U.S. government's official web portal to all federal, state and local government web resources and services.